Airfield :
LOGIN :

Register | Disclaimer

   EN    FR    IT 

 










Legend :    VFR   Marginal VFR   IFR   Intensive IFR   Very Intensive IFR
Visi :
Ceiling :
>= 8 km
>= 3000ft
5 to 8 km
1000 to 3000 ft
1500m to 5 km
500 to 1000 ft
800 to 1500m
200 to 500 ft
< 800m
< 200 ft
Symbols :   Thunderstorms  Fog  Heavy snow  Heavy precipitations  Wind > 20 kt
SIGMETs :     Misc.  Thunderstorms  Icing  Turbulence  Mountain Waves  Volcanic Ashes






- Airport Elevation : 1906 ft
- IATA code : INN


LOWI - Innsbruck

CURRENT METAR :
  • 100420Z AUTO VRB02KT 8000 -RASN FEW004 BKN007 01/00 Q1019

EXPIRED METARs :
  • 100350Z AUTO 10003KT 060V140 8000 -RASN FEW004 SCT009 BKN017 02/01 Q1018
  • 100320Z AUTO 07008KT 9999 -RA FEW005 SCT008 BKN015 02/01 Q1018
  • 100250Z AUTO 09006KT 9999 -RA FEW006 BKN013 02/01 Q1017
  • 100220Z AUTO 06005KT 030V100 9999 -RA FEW006 BKN012 03/02 Q1017
  • 100150Z AUTO VRB02KT 9999 -RA FEW005 BKN015 03/02 Q1016

TAF AMD TAF LOWI
Valid from the 10 at 04:00 until the 11 at 00:00 UTC


100400Z 1004/1024 08006KT 6000 -SNRA SCT010 BKN050 TX04/1013Z TNM04/1024Z
TEMPO 1004/1007 27010KT 3000 SNRA BKN005
BECMG 1010/1012 9999 NSW FEW020 SCT060
BECMG 1016/1018 27004KT CAVOK



MET'MAP, your aeronautical weather chart ! - Copyright ORBIFLY December 2007 - Disclaimer

ORBIFLY MET'MAP TEAM :

Programming & Development : Alexandra Zaïnal
Concept & original design : Baudouin d'Aumeries
Assistance for programming : Marc-Olivier Méhu
Technical & hardware support : Manuel Goepfert

Contact : metmap@orbifly.com




SOURCES & CREDITS :

   NOAA